createdAt,value
2018-07-12T00:02:24.725Z,12.00
2018-07-12T00:04:51.898Z,11.57
2018-07-12T00:07:20.344Z,12.07
2018-07-12T00:09:50.838Z,11.87
2018-07-12T00:12:21.249Z,12.27
2018-07-12T00:14:48.428Z,12.60
2018-07-12T00:17:15.592Z,14.37
2018-07-12T00:19:42.776Z,12.50
2018-07-12T00:22:10.874Z,11.93
2018-07-12T00:24:38.618Z,10.83
2018-07-12T00:27:12.043Z,11.07
2018-07-12T00:29:41.172Z,10.73
2018-07-12T00:32:12.041Z,11.03
2018-07-12T00:34:39.215Z,10.63
2018-07-12T00:37:12.948Z,10.30
2018-07-12T00:39:40.304Z,10.53
2018-07-12T00:42:07.460Z,10.53
2018-07-12T00:44:34.617Z,9.97
2018-07-12T00:47:02.220Z,11.13
2018-07-12T00:49:31.203Z,11.27
2018-07-12T00:52:01.630Z,10.83
2018-07-12T00:54:28.802Z,13.57
2018-07-12T00:57:02.485Z,10.77
2018-07-12T00:59:29.663Z,11.67
2018-07-12T01:01:56.828Z,12.87
2018-07-12T01:04:23.985Z,12.97
2018-07-12T01:06:51.165Z,12.80
2018-07-12T01:09:21.659Z,12.60
2018-07-12T01:11:48.818Z,12.13
2018-07-12T01:14:22.713Z,11.67
2018-07-12T01:16:49.879Z,13.63
2018-07-12T01:19:20.933Z,14.33
2018-07-12T01:21:48.096Z,14.10
2018-07-12T01:24:15.277Z,14.50
2018-07-12T01:26:42.440Z,14.60
2018-07-12T01:29:10.809Z,14.10
2018-07-12T01:31:41.276Z,14.13
2018-07-12T01:34:11.775Z,15.37
2018-07-12T01:36:42.131Z,16.63
2018-07-12T01:39:10.569Z,17.43
2018-07-12T01:41:41.022Z,17.27
2018-07-12T01:44:11.517Z,18.10
2018-07-12T01:46:38.689Z,18.87
2018-07-12T01:49:05.878Z,18.97
2018-07-12T01:51:33.037Z,18.80
2018-07-12T01:54:00.710Z,19.43
2018-07-12T01:56:27.894Z,22.10
2018-07-12T01:59:01.826Z,24.60
2018-07-12T02:01:32.316Z,24.40
2018-07-12T02:04:00.730Z,29.80
2018-07-12T02:06:27.924Z,26.40
2018-07-12T02:08:55.115Z,39.30
2018-07-12T02:11:22.276Z,45.90
2018-07-12T02:13:50.697Z,62.57
2018-07-12T02:16:21.080Z,51.23
2018-07-12T02:18:48.251Z,44.60
2018-07-12T02:21:15.421Z,45.93
2018-07-12T02:23:42.576Z,43.20
2018-07-12T02:26:09.755Z,29.97
2018-07-12T02:28:40.741Z,37.80
2018-07-12T02:31:07.909Z,30.73
2018-07-12T02:33:41.784Z,39.33
2018-07-12T02:36:08.949Z,50.80
2018-07-12T02:38:42.734Z,44.33
2018-07-12T02:41:11.239Z,40.37
2018-07-12T02:43:41.656Z,48.70
2018-07-12T02:46:12.035Z,40.70
2018-07-12T02:48:40.526Z,43.40
2018-07-12T02:51:10.876Z,45.30
2018-07-12T02:53:38.052Z,45.90
2018-07-12T02:56:05.228Z,55.37
2018-07-12T02:58:40.746Z,57.20
2018-07-12T03:01:07.896Z,74.47
2018-07-12T03:03:35.054Z,98.57
2018-07-12T03:06:10.346Z,55.93
2018-07-12T03:08:37.492Z,69.20
2018-07-12T03:11:11.274Z,91.40
2018-07-12T03:13:41.770Z,73.87
2018-07-12T03:19:10.626Z,132.00
2018-07-12T03:21:37.829Z,131.53
2018-07-12T03:24:05.005Z,177.70
2018-07-12T03:26:32.170Z,134.60
2018-07-12T03:28:59.354Z,121.73
2018-07-12T03:31:33.105Z,112.13
2018-07-12T03:34:00.581Z,92.90
2018-07-12T03:36:27.732Z,113.50
2018-07-12T03:38:54.922Z,119.03
2018-07-12T03:41:32.281Z,119.93
2018-07-12T03:43:59.457Z,111.50
2018-07-12T03:46:26.626Z,85.67
2018-07-12T03:48:53.782Z,116.67
2018-07-12T03:51:20.940Z,86.97
2018-07-12T03:53:51.962Z,104.93
2018-07-12T03:56:20.316Z,83.40
2018-07-12T03:58:50.868Z,75.97
2018-07-12T04:01:21.312Z,76.70
2018-07-12T04:03:51.798Z,65.53
2018-07-12T04:06:19.001Z,75.20
2018-07-12T04:08:46.152Z,51.83
2018-07-12T04:11:13.312Z,70.83
2018-07-12T04:13:51.115Z,93.00
2018-07-12T04:16:18.284Z,80.10
2018-07-12T04:18:52.005Z,71.30
2018-07-12T04:21:19.193Z,65.53
2018-07-12T04:23:53.109Z,71.17
2018-07-12T04:26:20.290Z,78.07
2018-07-12T04:28:51.102Z,64.90
2018-07-12T04:31:21.734Z,66.70
2018-07-12T04:33:52.266Z,59.30
2018-07-12T04:36:19.459Z,56.13
2018-07-12T04:38:50.443Z,56.33
2018-07-12T04:41:21.017Z,51.57
2018-07-12T04:43:48.172Z,54.63
2018-07-12T04:46:21.928Z,50.20
2018-07-12T04:48:49.094Z,53.03
2018-07-12T04:51:22.884Z,53.80
2018-07-12T04:53:50.035Z,54.97
2018-07-12T04:56:17.189Z,55.53
2018-07-12T04:58:44.347Z,62.67
2018-07-12T05:01:21.865Z,58.63
2018-07-12T05:03:49.036Z,54.50
2018-07-12T05:06:16.200Z,52.17
2018-07-12T05:08:50.508Z,68.77
2018-07-12T05:11:21.688Z,52.73
2018-07-12T05:13:50.959Z,61.83
2018-07-12T05:16:22.917Z,53.13
2018-07-12T05:19:00.355Z,51.23
2018-07-12T05:21:27.532Z,57.93
2018-07-12T05:23:54.713Z,51.67
2018-07-12T05:26:30.445Z,50.63
2018-07-12T05:28:57.607Z,55.27
2018-07-12T05:31:24.774Z,55.93
2018-07-12T05:33:51.949Z,53.77
2018-07-12T05:37:04.058Z,56.63
2018-07-12T05:39:42.618Z,51.53
2018-07-12T05:42:10.784Z,59.60
2018-07-12T05:44:42.512Z,55.73
2018-07-12T05:47:12.226Z,57.73
2018-07-12T05:49:40.295Z,64.60
2018-07-12T05:52:08.388Z,56.80
2018-07-12T05:54:41.973Z,57.43
2018-07-12T05:57:13.179Z,64.90
2018-07-12T05:59:41.931Z,60.33
2018-07-12T06:02:19.759Z,56.00
2018-07-12T06:04:51.617Z,69.77
2018-07-12T06:07:25.098Z,67.93
2018-07-12T06:10:01.609Z,53.73
2018-07-12T06:12:32.854Z,55.03
2018-07-12T06:15:02.119Z,58.63
2018-07-12T06:17:30.199Z,65.77
2018-07-12T06:19:58.307Z,54.27
2018-07-12T06:25:19.372Z,53.33
2018-07-12T06:27:47.466Z,53.23
2018-07-12T06:30:21.905Z,56.27
2018-07-12T06:32:49.964Z,63.73
2018-07-12T06:35:21.822Z,60.10
2018-07-12T06:37:49.874Z,62.50
2018-07-12T06:40:23.466Z,61.03
2018-07-12T06:42:51.554Z,59.53
2018-07-12T06:45:23.386Z,63.33
2018-07-12T06:48:01.507Z,53.53
2018-07-12T06:50:29.625Z,49.83
2018-07-12T06:52:57.589Z,58.80
2018-07-12T06:55:25.653Z,48.93
2018-07-12T06:58:00.912Z,48.70
2018-07-12T07:00:29.076Z,51.00
2018-07-12T07:03:03.166Z,44.90
2018-07-12T07:05:31.351Z,45.70
2018-07-12T07:08:03.113Z,45.13
2018-07-12T07:10:31.425Z,35.93
2018-07-12T07:13:03.098Z,37.37
2018-07-12T07:15:31.769Z,42.27
2018-07-12T07:18:03.344Z,38.93
2018-07-12T07:20:41.454Z,42.13
2018-07-12T07:23:09.558Z,40.87
2018-07-12T07:25:37.663Z,42.43
2018-07-12T07:28:06.035Z,44.77
2018-07-12T07:30:33.893Z,35.23
2018-07-12T07:33:11.709Z,31.67
2018-07-12T07:35:42.039Z,40.37
2018-07-12T07:38:13.276Z,38.17
2018-07-12T07:40:41.399Z,37.93
2018-07-12T07:43:12.752Z,32.67
2018-07-12T07:45:41.505Z,35.53
2018-07-12T07:48:13.178Z,33.07
2018-07-12T07:50:41.284Z,36.30
2018-07-12T07:53:12.492Z,38.33
2018-07-12T07:55:40.556Z,34.70
2018-07-12T07:58:08.666Z,30.23
2018-07-12T08:00:36.743Z,32.57
2018-07-12T08:03:04.818Z,30.13
2018-07-12T08:05:32.923Z,28.40
2018-07-12T08:08:01.614Z,27.93
2018-07-12T08:10:31.457Z,27.93
2018-07-12T08:13:03.332Z,29.63
2018-07-12T08:15:41.332Z,29.50
2018-07-12T08:18:12.693Z,27.83
2018-07-12T08:20:40.792Z,22.83
2018-07-12T08:23:08.897Z,21.73
2018-07-12T08:25:43.209Z,26.67
2018-07-12T08:28:19.363Z,23.47
2018-07-12T08:30:47.472Z,21.87
2018-07-12T08:33:21.490Z,20.23
2018-07-12T08:35:49.824Z,18.50
2018-07-12T08:38:23.517Z,15.30
2018-07-12T08:41:01.235Z,18.80
2018-07-12T08:43:33.275Z,22.63
2018-07-12T08:46:01.385Z,15.70
2018-07-12T08:48:29.526Z,18.17
2018-07-12T08:50:57.583Z,13.60
2018-07-12T08:53:25.663Z,14.03
2018-07-12T08:56:01.296Z,15.13
2018-07-12T08:58:29.412Z,11.83
2018-07-12T09:00:57.552Z,14.33
2018-07-12T09:03:25.673Z,14.33
2018-07-12T09:05:53.781Z,15.37
2018-07-12T09:08:31.804Z,12.80
2018-07-12T09:11:02.997Z,13.20
2018-07-12T09:13:31.742Z,13.03
2018-07-12T09:16:01.395Z,14.00
2018-07-12T09:18:29.487Z,17.30
2018-07-12T09:20:57.648Z,11.90
2018-07-12T09:23:31.952Z,14.03
2018-07-12T09:26:02.041Z,13.67
2018-07-12T09:28:31.891Z,12.50
2018-07-12T09:31:01.645Z,13.80
2018-07-12T09:33:29.686Z,12.90
2018-07-12T09:35:57.762Z,13.03
2018-07-12T09:38:49.454Z,13.57
2018-07-12T09:41:17.876Z,14.43
2018-07-12T09:43:46.814Z,13.10
2018-07-12T09:46:21.683Z,12.60
2018-07-12T09:48:51.050Z,15.83
2018-07-12T09:51:19.161Z,11.83
2018-07-12T09:53:48.013Z,10.77
2018-07-12T09:56:16.275Z,10.97
2018-07-12T09:58:51.122Z,11.63
2018-07-12T10:01:30.068Z,13.13
2018-07-12T10:03:58.293Z,11.30
2018-07-12T10:06:31.812Z,11.83
2018-07-12T10:09:04.165Z,16.03
2018-07-12T10:11:37.953Z,7.67
2018-07-12T10:14:11.552Z,8.37
2018-07-12T10:16:45.272Z,9.23
2018-07-12T10:19:13.379Z,8.67
2018-07-12T10:21:51.540Z,7.30
2018-07-12T10:24:19.602Z,8.83
2018-07-12T10:26:53.746Z,9.53
2018-07-12T10:29:31.324Z,9.03
2018-07-12T10:32:02.825Z,8.43
2018-07-12T10:34:31.034Z,7.43
2018-07-12T10:36:59.170Z,8.03
2018-07-12T10:39:27.274Z,6.28
2018-07-12T10:42:01.725Z,10.30
2018-07-12T10:44:29.804Z,8.25
2018-07-12T10:46:57.870Z,7.63
2018-07-12T10:49:25.933Z,9.50
2018-07-12T10:52:01.240Z,7.40
2018-07-12T10:54:29.281Z,6.33
2018-07-12T10:57:03.312Z,8.83
2018-07-12T10:59:40.890Z,7.87
2018-07-12T11:02:09.036Z,6.30
2018-07-12T11:04:37.169Z,6.13
2018-07-12T11:07:11.058Z,8.93
2018-07-12T11:09:39.143Z,4.93
2018-07-12T11:12:07.158Z,6.27
2018-07-12T11:14:40.852Z,11.40
2018-07-12T11:17:08.969Z,6.33
2018-07-12T11:19:37.057Z,6.63
2018-07-12T11:22:10.937Z,6.53
2018-07-12T11:24:42.006Z,6.73
2018-07-12T11:27:10.074Z,7.07
2018-07-12T11:29:48.662Z,4.70
2018-07-12T11:32:16.860Z,6.83
2018-07-12T11:34:51.354Z,6.40
2018-07-12T11:37:22.594Z,6.23
2018-07-12T11:39:52.009Z,6.13
2018-07-12T11:42:21.546Z,5.07
2018-07-12T11:44:49.982Z,8.47
2018-07-12T11:47:21.813Z,6.90
2018-07-12T11:49:49.947Z,5.00
2018-07-12T11:52:23.666Z,11.30
2018-07-12T11:55:01.448Z,4.50
2018-07-12T11:57:29.533Z,4.53
2018-07-12T11:59:57.596Z,4.87
2018-07-12T12:02:31.485Z,5.90
2018-07-12T12:04:59.546Z,4.97
2018-07-12T12:07:31.322Z,8.37
2018-07-12T12:10:02.394Z,8.83
2018-07-12T12:12:30.460Z,6.33
2018-07-12T12:15:01.616Z,5.80
2018-07-12T12:17:33.137Z,6.17
2018-07-12T12:20:01.908Z,7.43
2018-07-12T12:22:29.770Z,6.63
2018-07-12T12:24:57.820Z,8.27
2018-07-12T12:27:25.934Z,9.03
2018-07-12T12:29:53.932Z,4.43
2018-07-12T12:32:32.183Z,6.67
2018-07-12T12:35:01.388Z,6.47
2018-07-12T12:37:29.487Z,8.63
2018-07-12T12:39:57.559Z,3.50
2018-07-12T12:42:25.646Z,6.78
2018-07-12T12:44:53.730Z,4.17
2018-07-12T12:47:22.020Z,6.95
2018-07-12T12:49:53.199Z,4.00
2018-07-12T12:52:21.319Z,4.72
2018-07-12T12:54:49.365Z,5.95
2018-07-12T12:57:22.974Z,9.18
2018-07-12T12:59:51.038Z,4.30
2018-07-12T13:02:19.097Z,5.00
2018-07-12T13:04:47.134Z,4.83
2018-07-12T13:07:15.214Z,6.00
2018-07-12T13:09:43.281Z,5.70
2018-07-12T13:12:21.045Z,5.28
2018-07-12T13:14:49.146Z,8.53
2018-07-12T13:17:17.216Z,4.65
2018-07-12T13:19:51.106Z,7.85
2018-07-12T13:22:19.190Z,4.80
2018-07-12T13:24:53.333Z,4.72
2018-07-12T13:27:21.408Z,4.30
2018-07-12T13:29:49.490Z,4.60
2018-07-12T13:32:23.085Z,4.22
2018-07-12T13:34:52.086Z,5.50
2018-07-12T13:37:21.929Z,5.10
2018-07-12T13:39:49.983Z,5.30
2018-07-12T13:42:21.794Z,7.58
2018-07-12T13:44:49.884Z,6.85
2018-07-12T13:47:17.990Z,5.58
2018-07-12T13:49:46.083Z,5.80
2018-07-12T13:52:21.753Z,7.70
2018-07-12T13:54:49.824Z,8.88
2018-07-12T13:57:17.858Z,7.37
2018-07-12T13:59:45.750Z,6.65
2018-07-12T14:02:21.385Z,4.67
2018-07-12T14:04:49.439Z,5.05
2018-07-12T14:07:21.374Z,6.28
2018-07-12T14:09:53.073Z,3.60
2018-07-12T14:12:21.134Z,8.60
2018-07-12T14:14:52.716Z,3.50
2018-07-12T14:17:20.810Z,6.00
2018-07-12T14:19:48.906Z,5.53
2018-07-12T14:22:23.285Z,6.28
2018-07-12T14:25:01.767Z,4.75
2018-07-12T14:27:29.910Z,7.15
2018-07-12T14:29:58.005Z,3.70
2018-07-12T14:32:26.101Z,2.95
2018-07-12T14:34:54.150Z,4.75
2018-07-12T14:37:32.006Z,5.08
2018-07-12T14:40:00.086Z,5.72
2018-07-12T14:42:31.736Z,6.50
2018-07-12T14:45:01.539Z,5.42
2018-07-12T14:47:29.577Z,5.22
2018-07-12T14:50:03.363Z,7.35
2018-07-12T14:52:31.451Z,6.83
2018-07-12T14:55:02.490Z,5.40
2018-07-12T14:57:31.746Z,5.55
2018-07-12T14:59:59.814Z,5.95
2018-07-12T15:02:27.942Z,4.33
2018-07-12T15:04:56.011Z,3.45
2018-07-12T15:07:24.056Z,7.55
2018-07-12T15:09:52.133Z,3.55
2018-07-12T15:12:21.824Z,5.08
2018-07-12T15:14:51.487Z,7.10
2018-07-12T15:17:23.174Z,7.47
2018-07-12T15:19:51.279Z,4.20
2018-07-12T15:22:19.367Z,5.85
2018-07-12T15:24:47.419Z,4.90
2018-07-12T15:27:15.559Z,3.37
2018-07-12T15:29:50.998Z,3.33
2018-07-12T15:32:19.138Z,5.10
2018-07-12T15:34:53.418Z,4.60
2018-07-12T15:37:30.996Z,5.08
2018-07-12T15:39:59.065Z,4.60
2018-07-12T15:42:33.474Z,3.75
2018-07-12T15:45:11.028Z,3.83
2018-07-12T15:47:42.225Z,3.08
2018-07-12T15:50:11.985Z,3.95
2018-07-12T15:52:41.586Z,6.40
2018-07-12T15:55:09.684Z,3.52
2018-07-12T15:57:43.388Z,3.12
2018-07-12T16:00:21.058Z,3.67
2018-07-12T16:02:48.953Z,4.45
2018-07-12T16:05:23.321Z,3.55
2018-07-12T16:08:00.879Z,3.47
2018-07-12T16:10:32.143Z,6.28
2018-07-12T16:13:01.739Z,5.15
2018-07-12T16:15:29.823Z,3.45
2018-07-12T16:17:57.889Z,5.03
2018-07-12T16:20:25.931Z,4.08
2018-07-12T16:23:01.119Z,2.92
2018-07-12T16:25:29.160Z,3.83
2018-07-12T16:28:03.439Z,4.85
2018-07-12T16:30:31.491Z,3.50
2018-07-12T16:32:59.570Z,3.85
2018-07-12T16:35:27.672Z,3.45
2018-07-12T16:37:55.798Z,5.03
2018-07-12T16:40:31.761Z,4.15
2018-07-12T16:42:59.876Z,4.53
2018-07-12T16:45:27.921Z,5.40
2018-07-12T16:47:55.962Z,5.15
2018-07-12T16:50:24.039Z,9.28
2018-07-12T16:52:52.113Z,6.20
2018-07-12T16:55:20.165Z,3.77
2018-07-12T16:57:51.915Z,5.22
2018-07-12T17:00:21.535Z,7.40
2018-07-12T17:02:50.278Z,4.75
2018-07-12T17:05:18.332Z,4.53
2018-07-12T17:07:52.224Z,4.05
2018-07-12T17:10:23.249Z,3.70
2018-07-12T17:12:51.283Z,3.00
2018-07-12T17:15:19.330Z,5.12
2018-07-12T17:17:47.190Z,3.22
2018-07-12T17:20:15.238Z,4.10
2018-07-12T17:22:51.491Z,3.20
2018-07-12T17:25:19.572Z,3.25
2018-07-12T17:27:47.677Z,8.65
2018-07-12T17:30:15.761Z,3.55
2018-07-12T17:32:43.812Z,4.65
2018-07-12T17:35:11.885Z,5.12
2018-07-12T17:37:43.016Z,3.92
2018-07-12T17:40:11.816Z,5.65
2018-07-12T17:42:40.013Z,4.15
2018-07-12T17:45:11.403Z,2.58
2018-07-12T17:47:39.432Z,2.77
2018-07-12T17:50:07.482Z,2.50
2018-07-12T17:52:35.542Z,2.85
2018-07-12T17:55:11.010Z,4.40
2018-07-12T17:57:39.145Z,3.02
2018-07-12T18:00:07.228Z,2.55
2018-07-12T18:02:40.958Z,2.58
2018-07-12T18:05:09.143Z,2.75
2018-07-12T18:07:37.219Z,2.25
2018-07-12T18:10:11.362Z,3.92
2018-07-12T18:12:42.562Z,4.30
2018-07-12T18:15:10.623Z,5.45
2018-07-12T18:17:41.861Z,5.17
2018-07-12T18:20:11.847Z,3.25
2018-07-12T18:22:41.341Z,5.85
2018-07-12T18:25:13.404Z,2.85
2018-07-12T18:27:51.542Z,4.10
2018-07-12T18:30:19.634Z,4.83
2018-07-12T18:32:51.515Z,4.05
2018-07-12T18:35:23.354Z,5.12
2018-07-12T18:38:01.410Z,3.95
2018-07-12T18:40:29.499Z,3.20
2018-07-12T18:42:57.588Z,4.65
2018-07-12T18:45:25.670Z,4.08
2018-07-12T18:47:53.754Z,3.52
2018-07-12T18:50:21.853Z,3.87
2018-07-12T18:52:51.624Z,3.30
2018-07-12T18:55:23.247Z,4.28
2018-07-12T18:57:52.389Z,2.75
2018-07-12T19:00:20.478Z,3.10
2018-07-12T19:02:48.591Z,3.70
2018-07-12T19:05:17.101Z,3.15
2018-07-12T19:07:51.285Z,3.17
2018-07-12T19:10:19.384Z,3.40
2018-07-12T19:12:47.466Z,4.25
2018-07-12T19:15:21.494Z,3.73
2018-07-12T19:17:49.510Z,5.57
2018-07-12T19:20:23.712Z,4.63
2018-07-12T19:22:51.933Z,4.63
2018-07-12T19:25:23.339Z,5.10
2018-07-12T19:28:01.789Z,6.70
2018-07-12T19:30:29.938Z,5.23
2018-07-12T19:32:58.191Z,5.73
2018-07-12T19:35:26.326Z,6.30
2018-07-12T19:37:54.359Z,7.57
2018-07-12T19:40:32.428Z,8.47
2018-07-12T19:43:00.505Z,6.70
2018-07-12T19:45:28.543Z,6.27
2018-07-12T19:48:02.380Z,7.07
2018-07-12T19:50:30.860Z,7.57
2018-07-12T19:53:02.143Z,7.03
2018-07-12T19:55:31.641Z,6.53
2018-07-12T19:58:01.788Z,6.30
2018-07-12T20:00:29.835Z,5.60
2018-07-12T20:03:03.608Z,5.83
2018-07-12T20:05:41.361Z,6.30
2018-07-12T20:08:09.450Z,9.07
2018-07-12T20:10:43.836Z,8.83
2018-07-12T20:13:11.882Z,10.30
2018-07-12T20:15:41.544Z,9.53
2018-07-12T20:18:13.371Z,9.03
2018-07-12T20:20:41.524Z,11.30
2018-07-12T20:23:12.773Z,10.23
2018-07-12T20:25:40.870Z,9.53
2018-07-12T20:28:12.369Z,7.43
2018-07-12T20:30:42.062Z,9.53
2018-07-12T20:33:11.728Z,10.27
2018-07-12T20:35:39.813Z,9.10
2018-07-12T20:38:07.878Z,8.73
2018-07-12T20:40:35.951Z,7.17
2018-07-12T20:43:04.028Z,4.60
2018-07-12T20:45:41.981Z,3.20
2018-07-12T20:48:10.099Z,5.27
2018-07-12T20:50:38.156Z,3.37
2018-07-12T20:53:12.184Z,13.07
2018-07-12T20:55:40.274Z,15.70
2018-07-12T20:58:11.881Z,13.23
2018-07-12T21:00:41.662Z,13.10
2018-07-12T21:03:09.708Z,13.73
2018-07-12T21:05:37.827Z,11.37
2018-07-12T21:08:11.540Z,12.00
2018-07-12T21:10:41.566Z,13.23
2018-07-12T21:13:09.633Z,17.47
2018-07-12T21:15:37.532Z,15.83
2018-07-12T21:18:05.738Z,13.80
2018-07-12T21:20:33.831Z,12.10
2018-07-12T21:23:11.606Z,13.50
2018-07-12T21:25:39.653Z,17.87
2018-07-12T21:28:07.708Z,20.93
2018-07-12T21:30:35.780Z,16.93
2018-07-12T21:33:11.736Z,13.30
2018-07-12T21:35:39.771Z,16.40
2018-07-12T21:38:07.821Z,18.60
2018-07-12T21:40:41.900Z,18.50
2018-07-12T21:43:09.997Z,14.70
2018-07-12T21:45:38.107Z,19.07
2018-07-12T21:48:11.871Z,12.70
2018-07-12T21:50:43.150Z,15.93
2018-07-12T21:53:11.765Z,10.67
2018-07-12T21:55:41.554Z,14.20
2018-07-12T21:58:13.208Z,33.30
2018-07-12T22:00:41.988Z,30.27
2018-07-12T22:03:11.855Z,27.20
2018-07-12T22:05:39.930Z,32.53
2018-07-12T22:08:12.910Z,33.97
2018-07-12T22:10:43.243Z,30.53
2018-07-12T22:13:11.931Z,22.27
2018-07-12T22:15:40.066Z,22.80
2018-07-12T22:18:08.479Z,17.17
2018-07-12T22:20:36.569Z,23.10
2018-07-12T22:23:11.574Z,16.63
2018-07-12T22:25:39.647Z,14.00
2018-07-12T22:28:07.900Z,13.70
2018-07-12T22:30:42.457Z,13.30
2018-07-12T22:33:10.548Z,12.93
2018-07-12T22:35:42.246Z,13.23
2018-07-12T22:38:12.172Z,12.57
2018-07-12T22:40:41.957Z,13.20
2018-07-12T22:43:11.797Z,13.50
2018-07-12T22:45:41.478Z,12.90
2018-07-12T22:48:09.645Z,10.00
2018-07-12T22:50:37.665Z,8.93
2018-07-12T22:53:05.780Z,8.97
2018-07-12T22:55:33.836Z,11.40
2018-07-12T22:58:11.967Z,7.87
2018-07-12T23:00:40.057Z,8.23
2018-07-12T23:03:08.197Z,6.93
2018-07-12T23:05:36.282Z,7.97
2018-07-12T23:08:10.869Z,7.20
2018-07-12T23:10:38.936Z,7.40
2018-07-12T23:13:07.027Z,7.03
2018-07-12T23:15:35.137Z,6.57
2018-07-12T23:18:11.652Z,8.30
2018-07-12T23:20:39.711Z,7.63
2018-07-12T23:23:07.833Z,6.07
2018-07-12T23:25:42.782Z,6.77
2018-07-12T23:28:11.878Z,7.80
2018-07-12T23:30:39.964Z,6.20
2018-07-12T23:33:11.442Z,6.27
2018-07-12T23:35:39.511Z,5.90
2018-07-12T23:38:13.071Z,6.17
2018-07-12T23:40:41.462Z,6.37
2018-07-12T23:43:09.597Z,8.53
2018-07-12T23:45:37.653Z,5.50
2018-07-12T23:48:05.758Z,5.73
2018-07-12T23:50:33.817Z,6.37
2018-07-12T23:53:11.730Z,5.70
2018-07-12T23:55:39.814Z,6.40
2018-07-12T23:58:07.898Z,6.17
